sensor_id;sensor_type;location;lat;lon;timestamp;temperature;humidity
10692;DHT22;5396;50.950;6.988;2022-11-18T00:00:53;9.60;99.90
10692;DHT22;5396;50.950;6.988;2022-11-18T00:03:19;9.60;99.90
10692;DHT22;5396;50.950;6.988;2022-11-18T00:05:55;9.60;99.90
10692;DHT22;5396;50.950;6.988;2022-11-18T00:08:21;9.60;99.90
10692;DHT22;5396;50.950;6.988;2022-11-18T00:10:47;9.60;99.90
10692;DHT22;5396;50.950;6.988;2022-11-18T00:13:13;9.60;99.90
10692;DHT22;5396;50.950;6.988;2022-11-18T00:16:02;9.60;99.90
10692;DHT22;5396;50.950;6.988;2022-11-18T00:18:28;9.60;99.90
10692;DHT22;5396;50.950;6.988;2022-11-18T00:20:53;9.60;99.90
10692;DHT22;5396;50.950;6.988;2022-11-18T00:23:19;9.60;99.90
10692;DHT22;5396;50.950;6.988;2022-11-18T00:25:45;9.60;99.90
10692;DHT22;5396;50.950;6.988;2022-11-18T00:28:10;9.60;99.90
10692;DHT22;5396;50.950;6.988;2022-11-18T00:30:36;9.60;99.90
10692;DHT22;5396;50.950;6.988;2022-11-18T00:33:01;9.60;99.90
10692;DHT22;5396;50.950;6.988;2022-11-18T00:35:27;9.60;99.90
10692;DHT22;5396;50.950;6.988;2022-11-18T00:37:52;9.60;99.90
10692;DHT22;5396;50.950;6.988;2022-11-18T00:40:18;9.50;99.90
10692;DHT22;5396;50.950;6.988;2022-11-18T00:42:43;9.50;99.90
10692;DHT22;5396;50.950;6.988;2022-11-18T00:45:19;9.40;99.90
10692;DHT22;5396;50.950;6.988;2022-11-18T00:47:45;9.40;99.90
10692;DHT22;5396;50.950;6.988;2022-11-18T00:50:14;9.40;99.90
10692;DHT22;5396;50.950;6.988;2022-11-18T00:52:40;9.40;99.90
10692;DHT22;5396;50.950;6.988;2022-11-18T00:55:06;9.40;99.90
10692;DHT22;5396;50.950;6.988;2022-11-18T00:57:32;9.40;99.90
10692;DHT22;5396;50.950;6.988;2022-11-18T00:59:57;9.40;99.90
10692;DHT22;5396;50.950;6.988;2022-11-18T01:02:23;9.40;99.90
10692;DHT22;5396;50.950;6.988;2022-11-18T01:04:49;9.40;99.90
10692;DHT22;5396;50.950;6.988;2022-11-18T01:07:14;9.40;99.90
10692;DHT22;5396;50.950;6.988;2022-11-18T01:09:40;9.40;99.90
10692;DHT22;5396;50.950;6.988;2022-11-18T01:12:06;9.40;99.90
10692;DHT22;5396;50.950;6.988;2022-11-18T01:14:50;9.40;99.90
10692;DHT22;5396;50.950;6.988;2022-11-18T01:17:15;9.40;99.90
10692;DHT22;5396;50.950;6.988;2022-11-18T01:19:41;9.40;99.90
10692;DHT22;5396;50.950;6.988;2022-11-18T01:22:06;9.40;99.90
10692;DHT22;5396;50.950;6.988;2022-11-18T01:24:32;9.40;99.90
10692;DHT22;5396;50.950;6.988;2022-11-18T01:26:59;9.40;99.90
10692;DHT22;5396;50.950;6.988;2022-11-18T01:29:25;9.40;99.90
10692;DHT22;5396;50.950;6.988;2022-11-18T01:31:51;9.40;99.90
10692;DHT22;5396;50.950;6.988;2022-11-18T01:34:17;9.40;99.90
10692;DHT22;5396;50.950;6.988;2022-11-18T01:36:43;9.50;99.90
10692;DHT22;5396;50.950;6.988;2022-11-18T01:39:09;9.40;99.90
10692;DHT22;5396;50.950;6.988;2022-11-18T01:41:34;9.40;99.90
10692;DHT22;5396;50.950;6.988;2022-11-18T01:44:01;9.50;99.90
10692;DHT22;5396;50.950;6.988;2022-11-18T01:46:29;9.40;99.90
10692;DHT22;5396;50.950;6.988;2022-11-18T01:49:05;9.50;99.90
10692;DHT22;5396;50.950;6.988;2022-11-18T01:51:38;9.50;99.90
10692;DHT22;5396;50.950;6.988;2022-11-18T01:54:08;9.50;99.90
10692;DHT22;5396;50.950;6.988;2022-11-18T01:56:41;9.50;99.90
10692;DHT22;5396;50.950;6.988;2022-11-18T01:59:11;9.50;99.90
10692;DHT22;5396;50.950;6.988;2022-11-18T02:01:38;9.50;99.90
10692;DHT22;5396;50.950;6.988;2022-11-18T02:04:04;9.50;99.90
10692;DHT22;5396;50.950;6.988;2022-11-18T02:06:30;9.50;99.90
10692;DHT22;5396;50.950;6.988;2022-11-18T02:08:56;9.40;99.90
10692;DHT22;5396;50.950;6.988;2022-11-18T02:11:22;9.40;99.90
10692;DHT22;5396;50.950;6.988;2022-11-18T02:14:08;9.50;99.90
10692;DHT22;5396;50.950;6.988;2022-11-18T02:16:59;9.40;99.90
10692;DHT22;5396;50.950;6.988;2022-11-18T02:26:27;9.40;99.90
10692;DHT22;5396;50.950;6.988;2022-11-18T02:33:44;9.40;99.90
10692;DHT22;5396;50.950;6.988;2022-11-18T02:36:27;9.40;99.90
10692;DHT22;5396;50.950;6.988;2022-11-18T02:39:06;9.40;99.90
10692;DHT22;5396;50.950;6.988;2022-11-18T02:41:33;9.40;99.90
10692;DHT22;5396;50.950;6.988;2022-11-18T02:44:12;9.40;99.90
10692;DHT22;5396;50.950;6.988;2022-11-18T02:46:39;9.40;99.90
10692;DHT22;5396;50.950;6.988;2022-11-18T02:49:10;9.40;99.90
10692;DHT22;5396;50.950;6.988;2022-11-18T02:51:37;9.30;99.90
10692;DHT22;5396;50.950;6.988;2022-11-18T02:54:06;9.40;99.90
10692;DHT22;5396;50.950;6.988;2022-11-18T02:56:34;9.30;99.90
10692;DHT22;5396;50.950;6.988;2022-11-18T02:59:01;9.30;99.90
10692;DHT22;5396;50.950;6.988;2022-11-18T03:01:29;9.30;99.90
10692;DHT22;5396;50.950;6.988;2022-11-18T03:03:55;9.30;99.90
10692;DHT22;5396;50.950;6.988;2022-11-18T03:09:16;9.20;99.90
10692;DHT22;5396;50.950;6.988;2022-11-18T03:12:15;9.10;99.90
10692;DHT22;5396;50.950;6.988;2022-11-18T03:20:35;9.20;99.90
10692;DHT22;5396;50.950;6.988;2022-11-18T03:23:17;9.20;99.90
10692;DHT22;5396;50.950;6.988;2022-11-18T03:28:18;9.20;99.90
10692;DHT22;5396;50.950;6.988;2022-11-18T03:31:12;9.20;99.90
10692;DHT22;5396;50.950;6.988;2022-11-18T03:33:51;9.10;99.90
10692;DHT22;5396;50.950;6.988;2022-11-18T03:36:21;9.10;99.90
10692;DHT22;5396;50.950;6.988;2022-11-18T03:38:51;9.10;99.90
10692;DHT22;5396;50.950;6.988;2022-11-18T03:41:19;9.10;99.90
10692;DHT22;5396;50.950;6.988;2022-11-18T03:43:53;9.20;99.90
10692;DHT22;5396;50.950;6.988;2022-11-18T03:46:43;9.20;99.90
10692;DHT22;5396;50.950;6.988;2022-11-18T03:49:17;9.20;99.90
10692;DHT22;5396;50.950;6.988;2022-11-18T03:51:54;9.20;99.90
10692;DHT22;5396;50.950;6.988;2022-11-18T03:54:24;9.20;99.90
10692;DHT22;5396;50.950;6.988;2022-11-18T03:57:07;9.20;99.90
10692;DHT22;5396;50.950;6.988;2022-11-18T03:59:42;9.20;99.90
10692;DHT22;5396;50.950;6.988;2022-11-18T04:05:02;9.20;99.90
10692;DHT22;5396;50.950;6.988;2022-11-18T04:07:51;9.20;99.90
10692;DHT22;5396;50.950;6.988;2022-11-18T04:10:28;9.20;99.90
10692;DHT22;5396;50.950;6.988;2022-11-18T04:13:26;9.20;99.90
10692;DHT22;5396;50.950;6.988;2022-11-18T04:15:53;9.20;99.90
10692;DHT22;5396;50.950;6.988;2022-11-18T04:18:19;9.20;99.90
10692;DHT22;5396;50.950;6.988;2022-11-18T04:20:45;9.20;99.90
10692;DHT22;5396;50.950;6.988;2022-11-18T04:23:11;9.20;99.90
10692;DHT22;5396;50.950;6.988;2022-11-18T04:25:37;9.20;99.90
10692;DHT22;5396;50.950;6.988;2022-11-18T04:28:02;9.20;99.90
10692;DHT22;5396;50.950;6.988;2022-11-18T04:30:28;9.10;99.90
10692;DHT22;5396;50.950;6.988;2022-11-18T04:32:54;9.10;99.90
10692;DHT22;5396;50.950;6.988;2022-11-18T04:35:20;9.10;99.90
10692;DHT22;5396;50.950;6.988;2022-11-18T04:37:45;9.10;99.90
10692;DHT22;5396;50.950;6.988;2022-11-18T04:40:11;9.10;99.90
10692;DHT22;5396;50.950;6.988;2022-11-18T04:42:37;9.10;99.90
10692;DHT22;5396;50.950;6.988;2022-11-18T04:45:03;9.10;99.90
10692;DHT22;5396;50.950;6.988;2022-11-18T04:47:29;9.10;99.90
10692;DHT22;5396;50.950;6.988;2022-11-18T04:49:55;9.20;99.90
10692;DHT22;5396;50.950;6.988;2022-11-18T04:52:20;9.20;99.90
10692;DHT22;5396;50.950;6.988;2022-11-18T04:54:46;9.20;99.90
10692;DHT22;5396;50.950;6.988;2022-11-18T04:57:12;9.20;99.90
10692;DHT22;5396;50.950;6.988;2022-11-18T04:59:37;9.20;99.90
10692;DHT22;5396;50.950;6.988;2022-11-18T05:02:03;9.20;99.90
10692;DHT22;5396;50.950;6.988;2022-11-18T05:04:32;9.20;99.90
10692;DHT22;5396;50.950;6.988;2022-11-18T05:07:00;9.20;99.90
10692;DHT22;5396;50.950;6.988;2022-11-18T05:09:25;9.20;99.90
10692;DHT22;5396;50.950;6.988;2022-11-18T05:11:51;9.20;99.90
10692;DHT22;5396;50.950;6.988;2022-11-18T05:14:36;9.20;99.90
10692;DHT22;5396;50.950;6.988;2022-11-18T05:17:03;9.10;99.90
10692;DHT22;5396;50.950;6.988;2022-11-18T05:19:29;9.10;99.90
10692;DHT22;5396;50.950;6.988;2022-11-18T05:21:55;9.00;99.90
10692;DHT22;5396;50.950;6.988;2022-11-18T05:24:20;9.00;99.90
10692;DHT22;5396;50.950;6.988;2022-11-18T05:26:49;8.90;99.90
10692;DHT22;5396;50.950;6.988;2022-11-18T05:29:16;8.90;99.90
10692;DHT22;5396;50.950;6.988;2022-11-18T05:31:43;9.00;99.90
10692;DHT22;5396;50.950;6.988;2022-11-18T05:34:09;8.90;99.90
10692;DHT22;5396;50.950;6.988;2022-11-18T05:36:35;8.90;99.90
10692;DHT22;5396;50.950;6.988;2022-11-18T05:39:01;9.00;99.90
10692;DHT22;5396;50.950;6.988;2022-11-18T05:41:26;9.00;99.90
10692;DHT22;5396;50.950;6.988;2022-11-18T05:44:11;9.00;99.90
10692;DHT22;5396;50.950;6.988;2022-11-18T05:46:36;9.00;99.90
10692;DHT22;5396;50.950;6.988;2022-11-18T05:49:02;8.90;99.90
10692;DHT22;5396;50.950;6.988;2022-11-18T05:51:28;8.90;99.90
10692;DHT22;5396;50.950;6.988;2022-11-18T05:53:53;8.80;99.90
10692;DHT22;5396;50.950;6.988;2022-11-18T05:56:36;8.70;99.90
10692;DHT22;5396;50.950;6.988;2022-11-18T05:59:03;8.70;99.90
10692;DHT22;5396;50.950;6.988;2022-11-18T06:01:42;8.70;99.90
10692;DHT22;5396;50.950;6.988;2022-11-18T06:04:23;8.70;99.90
10692;DHT22;5396;50.950;6.988;2022-11-18T06:06:54;8.70;99.90
10692;DHT22;5396;50.950;6.988;2022-11-18T06:09:25;8.70;99.90
10692;DHT22;5396;50.950;6.988;2022-11-18T06:11:54;8.70;99.90
10692;DHT22;5396;50.950;6.988;2022-11-18T06:15:09;8.70;99.90
10692;DHT22;5396;50.950;6.988;2022-11-18T06:17:21;8.60;99.90
10692;DHT22;5396;50.950;6.988;2022-11-18T06:19:47;8.60;99.90
10692;DHT22;5396;50.950;6.988;2022-11-18T06:22:13;8.50;99.90
10692;DHT22;5396;50.950;6.988;2022-11-18T06:24:39;8.60;99.90
10692;DHT22;5396;50.950;6.988;2022-11-18T06:27:05;8.50;99.90
10692;DHT22;5396;50.950;6.988;2022-11-18T06:29:30;8.60;99.90
10692;DHT22;5396;50.950;6.988;2022-11-18T06:31:56;8.60;99.90
10692;DHT22;5396;50.950;6.988;2022-11-18T06:34:22;8.70;99.90
10692;DHT22;5396;50.950;6.988;2022-11-18T06:36:47;8.70;99.90
10692;DHT22;5396;50.950;6.988;2022-11-18T06:39:13;8.70;99.90
10692;DHT22;5396;50.950;6.988;2022-11-18T06:41:38;8.80;99.90
10692;DHT22;5396;50.950;6.988;2022-11-18T06:44:04;8.80;99.90
10692;DHT22;5396;50.950;6.988;2022-11-18T06:46:30;8.80;99.90
10692;DHT22;5396;50.950;6.988;2022-11-18T06:49:14;8.90;99.90
10692;DHT22;5396;50.950;6.988;2022-11-18T06:51:39;8.90;99.90
10692;DHT22;5396;50.950;6.988;2022-11-18T06:54:05;9.00;99.90
10692;DHT22;5396;50.950;6.988;2022-11-18T06:56:31;9.00;99.90
10692;DHT22;5396;50.950;6.988;2022-11-18T06:58:57;9.00;99.90
10692;DHT22;5396;50.950;6.988;2022-11-18T07:01:28;9.10;99.90
10692;DHT22;5396;50.950;6.988;2022-11-18T07:03:57;9.10;99.90
10692;DHT22;5396;50.950;6.988;2022-11-18T07:06:25;9.10;99.90
10692;DHT22;5396;50.950;6.988;2022-11-18T07:08:54;9.10;99.90
10692;DHT22;5396;50.950;6.988;2022-11-18T07:11:22;9.10;99.90
10692;DHT22;5396;50.950;6.988;2022-11-18T07:13:48;9.20;99.90
10692;DHT22;5396;50.950;6.988;2022-11-18T07:16:22;9.20;99.90
10692;DHT22;5396;50.950;6.988;2022-11-18T07:18:49;9.20;99.90
10692;DHT22;5396;50.950;6.988;2022-11-18T07:21:20;9.20;99.90
10692;DHT22;5396;50.950;6.988;2022-11-18T07:23:47;9.20;99.90
10692;DHT22;5396;50.950;6.988;2022-11-18T07:26:13;9.20;99.90
10692;DHT22;5396;50.950;6.988;2022-11-18T07:28:38;9.10;99.90
10692;DHT22;5396;50.950;6.988;2022-11-18T07:31:11;9.10;99.90
10692;DHT22;5396;50.950;6.988;2022-11-18T07:33:37;9.10;99.90
10692;DHT22;5396;50.950;6.988;2022-11-18T07:36:07;9.10;99.90
10692;DHT22;5396;50.950;6.988;2022-11-18T07:38:33;9.10;99.90
10692;DHT22;5396;50.950;6.988;2022-11-18T07:41:10;9.10;99.90
10692;DHT22;5396;50.950;6.988;2022-11-18T07:43:37;9.10;99.90
10692;DHT22;5396;50.950;6.988;2022-11-18T07:48:37;9.20;99.90
10692;DHT22;5396;50.950;6.988;2022-11-18T07:51:03;9.30;99.90
10692;DHT22;5396;50.950;6.988;2022-11-18T07:53:29;9.30;99.90
10692;DHT22;5396;50.950;6.988;2022-11-18T07:55:55;9.40;99.90
10692;DHT22;5396;50.950;6.988;2022-11-18T07:58:21;9.40;99.90
10692;DHT22;5396;50.950;6.988;2022-11-18T08:00:46;9.40;99.90
10692;DHT22;5396;50.950;6.988;2022-11-18T08:03:12;9.50;99.90
10692;DHT22;5396;50.950;6.988;2022-11-18T08:05:37;9.50;99.90
10692;DHT22;5396;50.950;6.988;2022-11-18T08:08:03;9.50;99.90
10692;DHT22;5396;50.950;6.988;2022-11-18T08:10:29;9.50;99.90
10692;DHT22;5396;50.950;6.988;2022-11-18T08:12:55;9.60;99.90
10692;DHT22;5396;50.950;6.988;2022-11-18T08:15:21;9.60;99.90
10692;DHT22;5396;50.950;6.988;2022-11-18T08:17:47;9.70;99.90
10692;DHT22;5396;50.950;6.988;2022-11-18T08:20:13;9.70;99.90
10692;DHT22;5396;50.950;6.988;2022-11-18T08:22:39;9.80;99.90
10692;DHT22;5396;50.950;6.988;2022-11-18T08:25:05;9.80;99.90
10692;DHT22;5396;50.950;6.988;2022-11-18T08:27:31;9.90;99.90
10692;DHT22;5396;50.950;6.988;2022-11-18T08:29:57;9.90;99.90
10692;DHT22;5396;50.950;6.988;2022-11-18T08:32:22;10.00;99.90
10692;DHT22;5396;50.950;6.988;2022-11-18T08:34:49;10.10;99.90
10692;DHT22;5396;50.950;6.988;2022-11-18T08:37:15;10.10;99.90
10692;DHT22;5396;50.950;6.988;2022-11-18T08:39:41;10.10;99.90
10692;DHT22;5396;50.950;6.988;2022-11-18T08:42:08;10.20;99.90
10692;DHT22;5396;50.950;6.988;2022-11-18T08:44:34;10.10;99.90
10692;DHT22;5396;50.950;6.988;2022-11-18T08:47:00;10.10;99.90
10692;DHT22;5396;50.950;6.988;2022-11-18T08:49:27;10.10;99.90
10692;DHT22;5396;50.950;6.988;2022-11-18T08:51:53;10.00;99.90
10692;DHT22;5396;50.950;6.988;2022-11-18T08:54:18;10.00;99.90
10692;DHT22;5396;50.950;6.988;2022-11-18T08:56:44;10.00;99.90
10692;DHT22;5396;50.950;6.988;2022-11-18T08:59:12;10.00;99.90
10692;DHT22;5396;50.950;6.988;2022-11-18T09:01:38;10.10;99.90
10692;DHT22;5396;50.950;6.988;2022-11-18T09:04:06;10.00;99.90
10692;DHT22;5396;50.950;6.988;2022-11-18T09:06:32;10.10;99.90
10692;DHT22;5396;50.950;6.988;2022-11-18T09:08:59;10.10;99.90
10692;DHT22;5396;50.950;6.988;2022-11-18T09:11:26;10.10;99.90
10692;DHT22;5396;50.950;6.988;2022-11-18T09:13:57;10.10;99.90
10692;DHT22;5396;50.950;6.988;2022-11-18T09:16:25;10.10;99.90
10692;DHT22;5396;50.950;6.988;2022-11-18T09:18:51;10.10;99.90
10692;DHT22;5396;50.950;6.988;2022-11-18T09:21:17;10.10;99.90
10692;DHT22;5396;50.950;6.988;2022-11-18T09:23:44;10.10;99.90
10692;DHT22;5396;50.950;6.988;2022-11-18T09:26:12;10.10;99.90
10692;DHT22;5396;50.950;6.988;2022-11-18T09:28:38;10.10;99.90
10692;DHT22;5396;50.950;6.988;2022-11-18T09:31:12;10.10;99.90
10692;DHT22;5396;50.950;6.988;2022-11-18T09:33:38;10.10;99.90
10692;DHT22;5396;50.950;6.988;2022-11-18T09:36:10;10.20;99.90
10692;DHT22;5396;50.950;6.988;2022-11-18T09:38:36;10.20;99.90
10692;DHT22;5396;50.950;6.988;2022-11-18T09:44:36;10.30;99.90
10692;DHT22;5396;50.950;6.988;2022-11-18T09:47:11;10.40;99.90
10692;DHT22;5396;50.950;6.988;2022-11-18T09:49:43;10.40;99.90
10692;DHT22;5396;50.950;6.988;2022-11-18T09:52:15;10.50;99.90
10692;DHT22;5396;50.950;6.988;2022-11-18T09:54:41;10.60;99.90
10692;DHT22;5396;50.950;6.988;2022-11-18T09:57:18;10.70;99.90
10692;DHT22;5396;50.950;6.988;2022-11-18T09:59:44;10.70;99.90
10692;DHT22;5396;50.950;6.988;2022-11-18T10:04:38;10.90;99.90
10692;DHT22;5396;50.950;6.988;2022-11-18T10:07:34;11.00;99.90
10692;DHT22;5396;50.950;6.988;2022-11-18T10:10:04;11.10;99.90
10692;DHT22;5396;50.950;6.988;2022-11-18T10:13:08;11.20;99.90
10692;DHT22;5396;50.950;6.988;2022-11-18T10:15:58;11.30;99.90
10692;DHT22;5396;50.950;6.988;2022-11-18T10:18:38;11.40;99.90
10692;DHT22;5396;50.950;6.988;2022-11-18T10:21:21;11.50;99.90
10692;DHT22;5396;50.950;6.988;2022-11-18T10:23:59;11.70;99.90
10692;DHT22;5396;50.950;6.988;2022-11-18T10:26:33;11.90;99.90
10692;DHT22;5396;50.950;6.988;2022-11-18T10:28:59;12.10;99.90
10692;DHT22;5396;50.950;6.988;2022-11-18T10:31:25;12.20;99.90
10692;DHT22;5396;50.950;6.988;2022-11-18T10:33:58;12.20;99.90
10692;DHT22;5396;50.950;6.988;2022-11-18T10:36:27;12.20;99.90
10692;DHT22;5396;50.950;6.988;2022-11-18T10:39:12;12.10;99.90
10692;DHT22;5396;50.950;6.988;2022-11-18T10:41:44;12.20;99.90
10692;DHT22;5396;50.950;6.988;2022-11-18T10:44:36;12.20;99.90
10692;DHT22;5396;50.950;6.988;2022-11-18T10:49:40;12.10;99.90
10692;DHT22;5396;50.950;6.988;2022-11-18T10:52:11;12.20;99.90
10692;DHT22;5396;50.950;6.988;2022-11-18T10:54:37;12.30;99.90
10692;DHT22;5396;50.950;6.988;2022-11-18T10:57:20;12.30;99.90
10692;DHT22;5396;50.950;6.988;2022-11-18T10:59:56;12.30;99.90
10692;DHT22;5396;50.950;6.988;2022-11-18T11:05:21;12.50;99.90
10692;DHT22;5396;50.950;6.988;2022-11-18T11:08:19;12.60;99.90
10692;DHT22;5396;50.950;6.988;2022-11-18T11:10:55;12.80;99.90
10692;DHT22;5396;50.950;6.988;2022-11-18T11:13:23;12.90;99.90
10692;DHT22;5396;50.950;6.988;2022-11-18T11:15:53;13.10;99.90
10692;DHT22;5396;50.950;6.988;2022-11-18T11:18:31;13.00;99.90
10692;DHT22;5396;50.950;6.988;2022-11-18T11:21:14;13.00;99.90
10692;DHT22;5396;50.950;6.988;2022-11-18T11:23:40;13.00;99.90
10692;DHT22;5396;50.950;6.988;2022-11-18T11:26:08;13.10;99.90
10692;DHT22;5396;50.950;6.988;2022-11-18T11:31:33;13.30;99.90
10692;DHT22;5396;50.950;6.988;2022-11-18T11:41:52;13.40;99.90
10692;DHT22;5396;50.950;6.988;2022-11-18T11:55:30;12.40;99.90
10692;DHT22;5396;50.950;6.988;2022-11-18T11:58:39;12.40;99.90
10692;DHT22;5396;50.950;6.988;2022-11-18T12:03:56;12.60;99.90
10692;DHT22;5396;50.950;6.988;2022-11-18T12:06:24;12.70;99.90
10692;DHT22;5396;50.950;6.988;2022-11-18T12:09:12;12.70;99.90
10692;DHT22;5396;50.950;6.988;2022-11-18T12:11:54;12.60;99.90
10692;DHT22;5396;50.950;6.988;2022-11-18T12:16:59;12.50;99.90
10692;DHT22;5396;50.950;6.988;2022-11-18T12:19:26;12.50;99.90
10692;DHT22;5396;50.950;6.988;2022-11-18T12:21:58;12.50;99.90
10692;DHT22;5396;50.950;6.988;2022-11-18T12:24:38;12.50;99.90
10692;DHT22;5396;50.950;6.988;2022-11-18T12:30:02;12.60;99.90
10692;DHT22;5396;50.950;6.988;2022-11-18T12:40:06;12.60;99.90
10692;DHT22;5396;50.950;6.988;2022-11-18T12:48:25;12.70;99.90
10692;DHT22;5396;50.950;6.988;2022-11-18T12:50:54;12.80;99.90
10692;DHT22;5396;50.950;6.988;2022-11-18T12:53:38;12.80;99.90
10692;DHT22;5396;50.950;6.988;2022-11-18T12:58:50;13.00;99.90
10692;DHT22;5396;50.950;6.988;2022-11-18T13:01:22;12.90;99.90
10692;DHT22;5396;50.950;6.988;2022-11-18T13:03:48;12.90;99.90
10692;DHT22;5396;50.950;6.988;2022-11-18T13:06:24;13.00;99.90
10692;DHT22;5396;50.950;6.988;2022-11-18T13:08:55;13.10;99.90
10692;DHT22;5396;50.950;6.988;2022-11-18T13:11:23;13.10;99.90
10692;DHT22;5396;50.950;6.988;2022-11-18T13:14:16;13.00;99.90
10692;DHT22;5396;50.950;6.988;2022-11-18T13:17:01;12.80;99.90
10692;DHT22;5396;50.950;6.988;2022-11-18T13:19:56;12.80;99.90
10692;DHT22;5396;50.950;6.988;2022-11-18T13:22:22;12.90;99.90
10692;DHT22;5396;50.950;6.988;2022-11-18T13:25:22;12.80;99.90
10692;DHT22;5396;50.950;6.988;2022-11-18T13:31:28;12.70;99.90
10692;DHT22;5396;50.950;6.988;2022-11-18T13:33:38;12.70;99.90
10692;DHT22;5396;50.950;6.988;2022-11-18T13:36:22;12.70;99.90
10692;DHT22;5396;50.950;6.988;2022-11-18T13:39:05;12.70;99.90
10692;DHT22;5396;50.950;6.988;2022-11-18T13:41:33;12.70;99.90
10692;DHT22;5396;50.950;6.988;2022-11-18T13:44:21;12.70;99.90
10692;DHT22;5396;50.950;6.988;2022-11-18T13:49:46;13.00;99.90
10692;DHT22;5396;50.950;6.988;2022-11-18T13:52:18;13.20;99.90
10692;DHT22;5396;50.950;6.988;2022-11-18T13:54:46;13.40;99.90
10692;DHT22;5396;50.950;6.988;2022-11-18T13:57:19;13.50;99.90
10692;DHT22;5396;50.950;6.988;2022-11-18T13:59:47;13.60;99.90
10692;DHT22;5396;50.950;6.988;2022-11-18T14:02:13;13.60;99.90
10692;DHT22;5396;50.950;6.988;2022-11-18T14:04:54;13.60;99.90
10692;DHT22;5396;50.950;6.988;2022-11-18T14:07:30;13.60;99.90
10692;DHT22;5396;50.950;6.988;2022-11-18T14:10:02;13.30;99.90
10692;DHT22;5396;50.950;6.988;2022-11-18T14:12:30;12.90;99.90
10692;DHT22;5396;50.950;6.988;2022-11-18T14:15:21;12.70;99.90
10692;DHT22;5396;50.950;6.988;2022-11-18T14:17:55;12.60;99.90
10692;DHT22;5396;50.950;6.988;2022-11-18T14:20:22;12.50;99.90
10692;DHT22;5396;50.950;6.988;2022-11-18T14:22:53;12.40;99.90
10692;DHT22;5396;50.950;6.988;2022-11-18T14:25:28;12.30;99.90
10692;DHT22;5396;50.950;6.988;2022-11-18T14:27:57;12.30;99.90
10692;DHT22;5396;50.950;6.988;2022-11-18T14:30:39;12.30;99.90
10692;DHT22;5396;50.950;6.988;2022-11-18T14:35:39;12.30;99.90
10692;DHT22;5396;50.950;6.988;2022-11-18T14:38:17;12.20;99.90
10692;DHT22;5396;50.950;6.988;2022-11-18T14:40:42;12.20;99.90
10692;DHT22;5396;50.950;6.988;2022-11-18T14:43:10;12.10;99.90
10692;DHT22;5396;50.950;6.988;2022-11-18T14:45:37;12.00;99.90
10692;DHT22;5396;50.950;6.988;2022-11-18T14:48:03;11.90;99.90
10692;DHT22;5396;50.950;6.988;2022-11-18T14:50:29;11.80;99.90
10692;DHT22;5396;50.950;6.988;2022-11-18T14:52:54;11.70;99.90
10692;DHT22;5396;50.950;6.988;2022-11-18T14:55:20;11.70;99.90
10692;DHT22;5396;50.950;6.988;2022-11-18T14:57:45;11.70;99.90
10692;DHT22;5396;50.950;6.988;2022-11-18T15:00:13;11.60;99.90
10692;DHT22;5396;50.950;6.988;2022-11-18T15:02:40;11.60;99.90
10692;DHT22;5396;50.950;6.988;2022-11-18T15:05:06;11.60;99.90
10692;DHT22;5396;50.950;6.988;2022-11-18T15:07:31;11.60;99.90
10692;DHT22;5396;50.950;6.988;2022-11-18T15:09:57;11.60;99.90
10692;DHT22;5396;50.950;6.988;2022-11-18T15:12:22;11.50;99.90
10692;DHT22;5396;50.950;6.988;2022-11-18T15:14:48;11.50;99.90
10692;DHT22;5396;50.950;6.988;2022-11-18T15:17:14;11.50;99.90
10692;DHT22;5396;50.950;6.988;2022-11-18T15:19:39;11.40;99.90
10692;DHT22;5396;50.950;6.988;2022-11-18T15:22:05;11.40;99.90
10692;DHT22;5396;50.950;6.988;2022-11-18T15:24:31;11.40;99.90
10692;DHT22;5396;50.950;6.988;2022-11-18T15:26:57;11.30;99.90
10692;DHT22;5396;50.950;6.988;2022-11-18T15:29:24;11.30;99.90
10692;DHT22;5396;50.950;6.988;2022-11-18T15:31:50;11.30;99.90
10692;DHT22;5396;50.950;6.988;2022-11-18T15:34:17;11.30;99.90
10692;DHT22;5396;50.950;6.988;2022-11-18T15:36:44;11.20;99.90
10692;DHT22;5396;50.950;6.988;2022-11-18T15:39:10;11.10;99.90
10692;DHT22;5396;50.950;6.988;2022-11-18T15:41:37;11.00;99.90
10692;DHT22;5396;50.950;6.988;2022-11-18T15:44:03;10.80;99.90
10692;DHT22;5396;50.950;6.988;2022-11-18T15:46:29;10.80;99.90
10692;DHT22;5396;50.950;6.988;2022-11-18T15:48:56;10.70;99.90
10692;DHT22;5396;50.950;6.988;2022-11-18T15:51:23;10.70;99.90
10692;DHT22;5396;50.950;6.988;2022-11-18T15:53:49;10.70;99.90
10692;DHT22;5396;50.950;6.988;2022-11-18T16:01:32;10.50;99.90
10692;DHT22;5396;50.950;6.988;2022-11-18T16:03:58;10.60;99.90
10692;DHT22;5396;50.950;6.988;2022-11-18T16:06:25;10.60;99.90
10692;DHT22;5396;50.950;6.988;2022-11-18T16:08:51;10.70;99.90
10692;DHT22;5396;50.950;6.988;2022-11-18T16:11:17;10.70;99.90
10692;DHT22;5396;50.950;6.988;2022-11-18T16:14:10;10.70;99.90
10692;DHT22;5396;50.950;6.988;2022-11-18T16:16:37;10.70;99.90
10692;DHT22;5396;50.950;6.988;2022-11-18T16:19:06;10.60;99.90
10692;DHT22;5396;50.950;6.988;2022-11-18T16:21:34;10.60;99.90
10692;DHT22;5396;50.950;6.988;2022-11-18T16:24:02;10.50;99.90
10692;DHT22;5396;50.950;6.988;2022-11-18T16:26:29;10.50;99.90
10692;DHT22;5396;50.950;6.988;2022-11-18T16:28:55;10.40;99.90
10692;DHT22;5396;50.950;6.988;2022-11-18T16:31:21;10.50;99.90
10692;DHT22;5396;50.950;6.988;2022-11-18T16:34:17;10.60;99.90
10692;DHT22;5396;50.950;6.988;2022-11-18T16:36:45;10.60;99.90
10692;DHT22;5396;50.950;6.988;2022-11-18T16:39:13;10.50;99.90
10692;DHT22;5396;50.950;6.988;2022-11-18T16:41:40;10.50;99.90
10692;DHT22;5396;50.950;6.988;2022-11-18T16:44:08;10.50;99.90
10692;DHT22;5396;50.950;6.988;2022-11-18T16:46:36;10.40;99.90
10692;DHT22;5396;50.950;6.988;2022-11-18T16:49:03;10.40;99.90
10692;DHT22;5396;50.950;6.988;2022-11-18T16:51:30;10.40;99.90
10692;DHT22;5396;50.950;6.988;2022-11-18T16:53:58;10.30;99.90
10692;DHT22;5396;50.950;6.988;2022-11-18T16:56:26;10.30;99.90
10692;DHT22;5396;50.950;6.988;2022-11-18T16:59:03;10.30;99.90
10692;DHT22;5396;50.950;6.988;2022-11-18T17:01:30;10.30;99.90
10692;DHT22;5396;50.950;6.988;2022-11-18T17:03:56;10.40;99.90
10692;DHT22;5396;50.950;6.988;2022-11-18T17:06:23;10.60;99.90
10692;DHT22;5396;50.950;6.988;2022-11-18T17:08:49;10.70;99.90
10692;DHT22;5396;50.950;6.988;2022-11-18T17:11:15;10.80;99.90
10692;DHT22;5396;50.950;6.988;2022-11-18T17:13:42;10.80;99.90
10692;DHT22;5396;50.950;6.988;2022-11-18T17:16:13;10.90;99.90
10692;DHT22;5396;50.950;6.988;2022-11-18T17:18:40;10.90;99.90
10692;DHT22;5396;50.950;6.988;2022-11-18T17:21:08;10.80;99.90
10692;DHT22;5396;50.950;6.988;2022-11-18T17:23:34;10.80;99.90
10692;DHT22;5396;50.950;6.988;2022-11-18T17:26:00;10.80;99.90
10692;DHT22;5396;50.950;6.988;2022-11-18T17:28:28;10.70;99.90
10692;DHT22;5396;50.950;6.988;2022-11-18T17:30:54;10.70;99.90
10692;DHT22;5396;50.950;6.988;2022-11-18T17:33:19;10.70;99.90
10692;DHT22;5396;50.950;6.988;2022-11-18T17:35:45;10.70;99.90
10692;DHT22;5396;50.950;6.988;2022-11-18T17:38:10;10.70;99.90
10692;DHT22;5396;50.950;6.988;2022-11-18T17:40:36;10.70;99.90
10692;DHT22;5396;50.950;6.988;2022-11-18T17:43:02;10.70;99.90
10692;DHT22;5396;50.950;6.988;2022-11-18T17:45:28;10.70;99.90
10692;DHT22;5396;50.950;6.988;2022-11-18T17:47:53;10.70;99.90
10692;DHT22;5396;50.950;6.988;2022-11-18T17:50:21;10.70;99.90
10692;DHT22;5396;50.950;6.988;2022-11-18T17:52:46;10.70;99.90